Airfield :
LOGIN :

Register | Disclaimer

   EN    FR    IT 

 










Legend :    VFR   Marginal VFR   IFR   Intensive IFR   Very Intensive IFR
Visi :
Ceiling :
>= 8 km
>= 3000ft
5 to 8 km
1000 to 3000 ft
1500m to 5 km
500 to 1000 ft
800 to 1500m
200 to 500 ft
< 800m
< 200 ft
Symbols :   Thunderstorms  Fog  Heavy snow  Heavy precipitations  Wind > 20 kt
SIGMETs :     Misc.  Thunderstorms  Icing  Turbulence  Mountain Waves  Volcanic Ashes






- Airport Elevation : 137 ft
- IATA code : THN


ESGT - Trollhattan-Vanersborg

CURRENT METAR :
  • 032020Z AUTO 15006KT 9999 FEW110/// 15/13 Q1015

EXPIRED METARs :
  • 031950Z AUTO VRB02KT 9999 FEW110/// 17/13 Q1015
  • 031920Z AUTO 21005KT 180V240 9999 BKN110/// 17/13 Q1015
  • 031850Z AUTO 21006KT 9999 BKN100/// BKN130/// 19/13 Q1015
  • 031820Z AUTO 21006KT 9999 SCT092/// BKN100/// BKN130/// 19/13 Q1015
  • 030520Z AUTO 16005KT 9999 BKN086/// OVC120/// 14/12 Q1018
  • 031750Z AUTO 20006KT 170V240 9999 OVC096/// 19/12 Q1015

Expired Forecast.



MET'MAP, your aeronautical weather chart ! - Copyright ORBIFLY December 2007 - Disclaimer

ORBIFLY MET'MAP TEAM :

Programming & Development : Alexandra Zaïnal
Original concept : Baudouin d'Aumeries
Technical & hardware support : Manuel Goepfert
Assistance : Marc-Olivier Méhu




SOURCES & CREDITS :

   NOAA